sensor_id;sensor_type;location;lat;lon;timestamp;temperature;humidity
47520;DHT22;33252;48.122;11.538;2022-07-11T00:01:17;14.70;92.60
47520;DHT22;33252;48.122;11.538;2022-07-11T00:03:43;14.80;92.70
47520;DHT22;33252;48.122;11.538;2022-07-11T00:06:08;15.00;92.30
47520;DHT22;33252;48.122;11.538;2022-07-11T00:08:34;15.00;92.30
47520;DHT22;33252;48.122;11.538;2022-07-11T00:10:59;14.90;92.30
47520;DHT22;33252;48.122;11.538;2022-07-11T00:13:25;15.20;91.90
47520;DHT22;33252;48.122;11.538;2022-07-11T00:15:50;15.10;91.50
47520;DHT22;33252;48.122;11.538;2022-07-11T00:18:16;15.00;91.60
47520;DHT22;33252;48.122;11.538;2022-07-11T00:20:41;15.10;91.70
47520;DHT22;33252;48.122;11.538;2022-07-11T00:23:07;15.10;91.30
47520;DHT22;33252;48.122;11.538;2022-07-11T00:25:32;15.00;91.10
47520;DHT22;33252;48.122;11.538;2022-07-11T00:27:58;15.00;92.20
47520;DHT22;33252;48.122;11.538;2022-07-11T00:30:24;15.10;92.40
47520;DHT22;33252;48.122;11.538;2022-07-11T00:32:49;15.00;91.00
47520;DHT22;33252;48.122;11.538;2022-07-11T00:35:15;15.00;91.10
47520;DHT22;33252;48.122;11.538;2022-07-11T00:37:40;15.10;91.60
47520;DHT22;33252;48.122;11.538;2022-07-11T00:40:06;15.20;90.80
47520;DHT22;33252;48.122;11.538;2022-07-11T00:42:32;15.20;90.90
47520;DHT22;33252;48.122;11.538;2022-07-11T00:44:57;15.20;90.70
47520;DHT22;33252;48.122;11.538;2022-07-11T00:47:23;15.10;91.10
47520;DHT22;33252;48.122;11.538;2022-07-11T00:49:48;15.20;90.80
47520;DHT22;33252;48.122;11.538;2022-07-11T00:52:14;15.30;90.40
47520;DHT22;33252;48.122;11.538;2022-07-11T00:54:40;15.20;90.60
47520;DHT22;33252;48.122;11.538;2022-07-11T00:57:05;15.10;92.70
47520;DHT22;33252;48.122;11.538;2022-07-11T00:59:32;15.10;91.70
47520;DHT22;33252;48.122;11.538;2022-07-11T01:01:58;15.20;92.40
47520;DHT22;33252;48.122;11.538;2022-07-11T01:04:23;15.30;92.00
47520;DHT22;33252;48.122;11.538;2022-07-11T01:06:49;15.30;90.70
47520;DHT22;33252;48.122;11.538;2022-07-11T01:09:15;15.30;92.00
47520;DHT22;33252;48.122;11.538;2022-07-11T01:11:40;15.30;92.80
47520;DHT22;33252;48.122;11.538;2022-07-11T01:14:06;15.20;92.90
47520;DHT22;33252;48.122;11.538;2022-07-11T01:16:31;15.00;93.00
47520;DHT22;33252;48.122;11.538;2022-07-11T01:18:57;14.90;93.60
47520;DHT22;33252;48.122;11.538;2022-07-11T01:24:17;14.90;92.80
47520;DHT22;33252;48.122;11.538;2022-07-11T01:26:43;14.80;93.20
47520;DHT22;33252;48.122;11.538;2022-07-11T01:29:13;15.00;92.70
47520;DHT22;33252;48.122;11.538;2022-07-11T01:31:41;15.00;93.40
47520;DHT22;33252;48.122;11.538;2022-07-11T01:34:07;14.90;93.30
47520;DHT22;33252;48.122;11.538;2022-07-11T01:36:33;15.00;92.00
47520;DHT22;33252;48.122;11.538;2022-07-11T01:38:59;15.20;92.10
47520;DHT22;33252;48.122;11.538;2022-07-11T01:41:24;15.10;91.40
47520;DHT22;33252;48.122;11.538;2022-07-11T01:43:50;15.20;92.00
47520;DHT22;33252;48.122;11.538;2022-07-11T01:46:16;15.10;91.80
47520;DHT22;33252;48.122;11.538;2022-07-11T01:48:43;15.20;91.60
47520;DHT22;33252;48.122;11.538;2022-07-11T01:51:09;15.00;92.50
47520;DHT22;33252;48.122;11.538;2022-07-11T01:53:34;15.00;92.60
47520;DHT22;33252;48.122;11.538;2022-07-11T01:56:00;15.00;92.80
47520;DHT22;33252;48.122;11.538;2022-07-11T01:58:25;15.20;91.50
47520;DHT22;33252;48.122;11.538;2022-07-11T02:00:51;15.20;91.80
47520;DHT22;33252;48.122;11.538;2022-07-11T02:03:16;15.20;92.10
47520;DHT22;33252;48.122;11.538;2022-07-11T02:05:42;15.30;92.80
47520;DHT22;33252;48.122;11.538;2022-07-11T02:08:08;15.20;91.30
47520;DHT22;33252;48.122;11.538;2022-07-11T02:10:37;15.20;91.10
47520;DHT22;33252;48.122;11.538;2022-07-11T02:13:03;15.20;90.60
47520;DHT22;33252;48.122;11.538;2022-07-11T02:15:29;15.30;92.10
47520;DHT22;33252;48.122;11.538;2022-07-11T02:17:55;15.20;92.00
47520;DHT22;33252;48.122;11.538;2022-07-11T02:20:21;15.10;91.10
47520;DHT22;33252;48.122;11.538;2022-07-11T02:22:46;15.20;90.90
47520;DHT22;33252;48.122;11.538;2022-07-11T02:25:12;15.20;90.90
47520;DHT22;33252;48.122;11.538;2022-07-11T02:27:38;15.10;90.70
47520;DHT22;33252;48.122;11.538;2022-07-11T02:30:04;15.20;91.60
47520;DHT22;33252;48.122;11.538;2022-07-11T02:32:29;15.20;90.70
47520;DHT22;33252;48.122;11.538;2022-07-11T02:34:55;15.20;91.80
47520;DHT22;33252;48.122;11.538;2022-07-11T02:37:20;15.20;91.60
47520;DHT22;33252;48.122;11.538;2022-07-11T02:39:46;15.20;90.70
47520;DHT22;33252;48.122;11.538;2022-07-11T02:42:12;15.20;91.00
47520;DHT22;33252;48.122;11.538;2022-07-11T02:44:38;15.20;91.90
47520;DHT22;33252;48.122;11.538;2022-07-11T02:47:03;15.10;91.90
47520;DHT22;33252;48.122;11.538;2022-07-11T02:49:29;15.00;92.80
47520;DHT22;33252;48.122;11.538;2022-07-11T02:51:56;15.00;92.80
47520;DHT22;33252;48.122;11.538;2022-07-11T02:54:21;14.90;93.10
47520;DHT22;33252;48.122;11.538;2022-07-11T02:56:47;15.00;93.10
47520;DHT22;33252;48.122;11.538;2022-07-11T02:59:13;15.10;92.40
47520;DHT22;33252;48.122;11.538;2022-07-11T03:01:38;15.10;92.40
47520;DHT22;33252;48.122;11.538;2022-07-11T03:04:07;15.10;93.00
47520;DHT22;33252;48.122;11.538;2022-07-11T03:06:32;15.00;91.70
47520;DHT22;33252;48.122;11.538;2022-07-11T03:08:58;15.10;91.20
47520;DHT22;33252;48.122;11.538;2022-07-11T03:11:23;15.10;91.50
47520;DHT22;33252;48.122;11.538;2022-07-11T03:13:49;15.10;91.20
47520;DHT22;33252;48.122;11.538;2022-07-11T03:16:14;15.20;91.30
47520;DHT22;33252;48.122;11.538;2022-07-11T03:18:40;15.10;91.20
47520;DHT22;33252;48.122;11.538;2022-07-11T03:21:06;15.20;91.70
47520;DHT22;33252;48.122;11.538;2022-07-11T03:23:32;15.20;92.70
47520;DHT22;33252;48.122;11.538;2022-07-11T03:25:57;15.20;92.20
47520;DHT22;33252;48.122;11.538;2022-07-11T03:28:23;15.30;92.10
47520;DHT22;33252;48.122;11.538;2022-07-11T03:30:48;15.10;92.50
47520;DHT22;33252;48.122;11.538;2022-07-11T03:33:14;15.10;92.30
47520;DHT22;33252;48.122;11.538;2022-07-11T03:35:39;15.00;91.10
47520;DHT22;33252;48.122;11.538;2022-07-11T03:38:09;15.10;91.70
47520;DHT22;33252;48.122;11.538;2022-07-11T03:40:35;15.00;90.80
47520;DHT22;33252;48.122;11.538;2022-07-11T03:43:00;15.20;91.20
47520;DHT22;33252;48.122;11.538;2022-07-11T03:45:27;15.00;91.10
47520;DHT22;33252;48.122;11.538;2022-07-11T03:47:52;15.10;91.20
47520;DHT22;33252;48.122;11.538;2022-07-11T03:50:18;15.20;91.00
47520;DHT22;33252;48.122;11.538;2022-07-11T03:52:44;15.10;91.10
47520;DHT22;33252;48.122;11.538;2022-07-11T03:55:09;15.20;91.90
47520;DHT22;33252;48.122;11.538;2022-07-11T03:57:35;15.20;91.00
47520;DHT22;33252;48.122;11.538;2022-07-11T04:00:02;15.30;92.60
47520;DHT22;33252;48.122;11.538;2022-07-11T04:02:30;15.20;91.20
47520;DHT22;33252;48.122;11.538;2022-07-11T04:04:56;15.30;91.60
47520;DHT22;33252;48.122;11.538;2022-07-11T04:07:21;15.30;91.10
47520;DHT22;33252;48.122;11.538;2022-07-11T04:09:47;15.30;91.30
47520;DHT22;33252;48.122;11.538;2022-07-11T04:12:12;15.30;90.90
47520;DHT22;33252;48.122;11.538;2022-07-11T04:14:38;15.30;91.30
47520;DHT22;33252;48.122;11.538;2022-07-11T04:17:03;15.30;91.00
47520;DHT22;33252;48.122;11.538;2022-07-11T04:19:29;15.40;91.30
47520;DHT22;33252;48.122;11.538;2022-07-11T04:21:55;15.30;91.80
47520;DHT22;33252;48.122;11.538;2022-07-11T04:24:20;15.30;91.90
47520;DHT22;33252;48.122;11.538;2022-07-11T04:26:46;15.30;91.20
47520;DHT22;33252;48.122;11.538;2022-07-11T04:29:11;15.20;91.20
47520;DHT22;33252;48.122;11.538;2022-07-11T04:31:37;15.20;91.20
47520;DHT22;33252;48.122;11.538;2022-07-11T04:34:03;15.30;90.90
47520;DHT22;33252;48.122;11.538;2022-07-11T04:36:28;15.20;91.10
47520;DHT22;33252;48.122;11.538;2022-07-11T04:38:54;15.30;91.20
47520;DHT22;33252;48.122;11.538;2022-07-11T04:41:19;15.30;92.40
47520;DHT22;33252;48.122;11.538;2022-07-11T04:43:45;15.30;91.60
47520;DHT22;33252;48.122;11.538;2022-07-11T04:46:11;15.30;91.90
47520;DHT22;33252;48.122;11.538;2022-07-11T04:48:36;15.30;91.10
47520;DHT22;33252;48.122;11.538;2022-07-11T04:51:05;15.40;91.80
47520;DHT22;33252;48.122;11.538;2022-07-11T04:53:31;15.60;91.70
47520;DHT22;33252;48.122;11.538;2022-07-11T04:55:56;15.60;92.30
47520;DHT22;33252;48.122;11.538;2022-07-11T04:58:22;15.60;91.00
47520;DHT22;33252;48.122;11.538;2022-07-11T05:00:47;15.50;91.10
47520;DHT22;33252;48.122;11.538;2022-07-11T05:03:13;15.30;91.30
47520;DHT22;33252;48.122;11.538;2022-07-11T05:05:40;15.50;91.40
47520;DHT22;33252;48.122;11.538;2022-07-11T05:08:05;15.70;91.10
47520;DHT22;33252;48.122;11.538;2022-07-11T05:10:31;15.80;91.40
47520;DHT22;33252;48.122;11.538;2022-07-11T05:12:58;15.80;90.70
47520;DHT22;33252;48.122;11.538;2022-07-11T05:15:24;15.80;91.00
47520;DHT22;33252;48.122;11.538;2022-07-11T05:17:50;15.70;90.30
47520;DHT22;33252;48.122;11.538;2022-07-11T05:20:15;15.80;90.70
47520;DHT22;33252;48.122;11.538;2022-07-11T05:22:41;15.90;90.40
47520;DHT22;33252;48.122;11.538;2022-07-11T05:25:06;15.70;90.70
47520;DHT22;33252;48.122;11.538;2022-07-11T05:27:32;15.80;90.90
47520;DHT22;33252;48.122;11.538;2022-07-11T05:29:58;15.90;90.70
47520;DHT22;33252;48.122;11.538;2022-07-11T05:32:23;15.90;90.40
47520;DHT22;33252;48.122;11.538;2022-07-11T05:34:49;15.90;90.50
47520;DHT22;33252;48.122;11.538;2022-07-11T05:37:14;15.90;90.30
47520;DHT22;33252;48.122;11.538;2022-07-11T05:39:40;15.80;90.20
47520;DHT22;33252;48.122;11.538;2022-07-11T05:42:05;15.80;90.40
47520;DHT22;33252;48.122;11.538;2022-07-11T05:44:31;15.90;90.60
47520;DHT22;33252;48.122;11.538;2022-07-11T05:47:00;16.10;90.30
47520;DHT22;33252;48.122;11.538;2022-07-11T05:49:26;15.80;90.30
47520;DHT22;33252;48.122;11.538;2022-07-11T05:51:52;15.80;90.50
47520;DHT22;33252;48.122;11.538;2022-07-11T05:54:17;15.90;90.20
47520;DHT22;33252;48.122;11.538;2022-07-11T05:56:43;15.90;90.50
47520;DHT22;33252;48.122;11.538;2022-07-11T05:59:09;16.10;90.50
47520;DHT22;33252;48.122;11.538;2022-07-11T06:01:35;16.30;90.00
47520;DHT22;33252;48.122;11.538;2022-07-11T06:04:01;16.50;90.70
47520;DHT22;33252;48.122;11.538;2022-07-11T06:06:26;16.60;90.10
47520;DHT22;33252;48.122;11.538;2022-07-11T06:08:52;16.50;89.80
47520;DHT22;33252;48.122;11.538;2022-07-11T06:11:19;16.40;90.40
47520;DHT22;33252;48.122;11.538;2022-07-11T06:13:45;16.60;89.00
47520;DHT22;33252;48.122;11.538;2022-07-11T06:16:10;16.50;90.30
47520;DHT22;33252;48.122;11.538;2022-07-11T06:18:36;16.60;88.80
47520;DHT22;33252;48.122;11.538;2022-07-11T06:21:02;16.60;88.80
47520;DHT22;33252;48.122;11.538;2022-07-11T06:23:28;16.50;89.50
47520;DHT22;33252;48.122;11.538;2022-07-11T06:25:54;16.50;89.30
47520;DHT22;33252;48.122;11.538;2022-07-11T06:28:20;16.40;89.30
47520;DHT22;33252;48.122;11.538;2022-07-11T06:30:46;16.40;88.80
47520;DHT22;33252;48.122;11.538;2022-07-11T06:33:11;16.50;88.80
47520;DHT22;33252;48.122;11.538;2022-07-11T06:35:37;16.50;87.40
47520;DHT22;33252;48.122;11.538;2022-07-11T06:38:03;16.60;88.00
47520;DHT22;33252;48.122;11.538;2022-07-11T06:40:28;16.70;88.30
47520;DHT22;33252;48.122;11.538;2022-07-11T06:42:54;16.70;87.90
47520;DHT22;33252;48.122;11.538;2022-07-11T06:45:20;16.80;86.90
47520;DHT22;33252;48.122;11.538;2022-07-11T06:47:45;16.80;88.20
47520;DHT22;33252;48.122;11.538;2022-07-11T06:50:11;16.90;89.00
47520;DHT22;33252;48.122;11.538;2022-07-11T06:52:36;16.70;87.70
47520;DHT22;33252;48.122;11.538;2022-07-11T06:55:02;16.70;88.30
47520;DHT22;33252;48.122;11.538;2022-07-11T06:57:28;16.70;87.00
47520;DHT22;33252;48.122;11.538;2022-07-11T06:59:54;16.80;87.30
47520;DHT22;33252;48.122;11.538;2022-07-11T07:02:19;17.00;87.00
47520;DHT22;33252;48.122;11.538;2022-07-11T07:04:45;17.00;86.30
47520;DHT22;33252;48.122;11.538;2022-07-11T07:07:11;17.10;86.60
47520;DHT22;33252;48.122;11.538;2022-07-11T07:09:36;17.00;86.70
47520;DHT22;33252;48.122;11.538;2022-07-11T07:12:02;17.10;86.60
47520;DHT22;33252;48.122;11.538;2022-07-11T07:14:27;17.00;87.10
47520;DHT22;33252;48.122;11.538;2022-07-11T07:16:53;17.00;87.00
47520;DHT22;33252;48.122;11.538;2022-07-11T07:19:18;17.30;86.70
47520;DHT22;33252;48.122;11.538;2022-07-11T07:21:44;17.30;87.50
47520;DHT22;33252;48.122;11.538;2022-07-11T07:24:09;17.30;85.70
47520;DHT22;33252;48.122;11.538;2022-07-11T07:26:35;17.10;86.10
47520;DHT22;33252;48.122;11.538;2022-07-11T07:29:00;17.20;86.60
47520;DHT22;33252;48.122;11.538;2022-07-11T07:31:26;17.30;85.60
47520;DHT22;33252;48.122;11.538;2022-07-11T07:33:52;17.30;85.90
47520;DHT22;33252;48.122;11.538;2022-07-11T07:36:18;17.40;87.00
47520;DHT22;33252;48.122;11.538;2022-07-11T07:38:44;17.50;86.20
47520;DHT22;33252;48.122;11.538;2022-07-11T07:41:12;17.70;85.90
47520;DHT22;33252;48.122;11.538;2022-07-11T07:43:38;17.80;86.20
47520;DHT22;33252;48.122;11.538;2022-07-11T07:46:03;17.90;88.40
47520;DHT22;33252;48.122;11.538;2022-07-11T07:48:30;17.80;86.70
47520;DHT22;33252;48.122;11.538;2022-07-11T07:50:55;17.70;86.70
47520;DHT22;33252;48.122;11.538;2022-07-11T07:53:21;17.80;84.90
47520;DHT22;33252;48.122;11.538;2022-07-11T07:55:46;17.40;85.50
47520;DHT22;33252;48.122;11.538;2022-07-11T07:58:12;17.60;86.60
47520;DHT22;33252;48.122;11.538;2022-07-11T08:00:37;17.70;86.10
47520;DHT22;33252;48.122;11.538;2022-07-11T08:03:22;17.70;85.40
47520;DHT22;33252;48.122;11.538;2022-07-11T08:05:47;17.60;85.70
47520;DHT22;33252;48.122;11.538;2022-07-11T08:08:13;17.60;85.30
47520;DHT22;33252;48.122;11.538;2022-07-11T08:10:38;17.50;86.50
47520;DHT22;33252;48.122;11.538;2022-07-11T08:13:04;17.80;86.20
47520;DHT22;33252;48.122;11.538;2022-07-11T08:15:30;17.80;85.40
47520;DHT22;33252;48.122;11.538;2022-07-11T08:17:55;17.90;86.00
47520;DHT22;33252;48.122;11.538;2022-07-11T08:20:21;17.90;86.90
47520;DHT22;33252;48.122;11.538;2022-07-11T08:22:46;17.80;88.30
47520;DHT22;33252;48.122;11.538;2022-07-11T08:25:12;17.90;88.20
47520;DHT22;33252;48.122;11.538;2022-07-11T08:27:38;18.00;87.70
47520;DHT22;33252;48.122;11.538;2022-07-11T08:30:04;17.90;86.60
47520;DHT22;33252;48.122;11.538;2022-07-11T08:32:30;17.90;87.60
47520;DHT22;33252;48.122;11.538;2022-07-11T08:34:56;18.00;87.80
47520;DHT22;33252;48.122;11.538;2022-07-11T08:37:21;17.80;85.70
47520;DHT22;33252;48.122;11.538;2022-07-11T08:39:47;17.90;87.00
47520;DHT22;33252;48.122;11.538;2022-07-11T08:42:12;18.20;87.80
47520;DHT22;33252;48.122;11.538;2022-07-11T08:44:38;18.40;86.50
47520;DHT22;33252;48.122;11.538;2022-07-11T08:47:05;18.20;87.10
47520;DHT22;33252;48.122;11.538;2022-07-11T08:49:30;18.50;89.50
47520;DHT22;33252;48.122;11.538;2022-07-11T08:51:56;18.60;85.40
47520;DHT22;33252;48.122;11.538;2022-07-11T08:54:22;18.70;85.90
47520;DHT22;33252;48.122;11.538;2022-07-11T08:56:47;18.40;86.20
47520;DHT22;33252;48.122;11.538;2022-07-11T08:59:15;18.40;87.10
47520;DHT22;33252;48.122;11.538;2022-07-11T09:01:43;18.30;86.20
47520;DHT22;33252;48.122;11.538;2022-07-11T09:04:09;18.30;85.50
47520;DHT22;33252;48.122;11.538;2022-07-11T09:06:35;18.30;86.40
47520;DHT22;33252;48.122;11.538;2022-07-11T09:09:01;18.40;86.30
47520;DHT22;33252;48.122;11.538;2022-07-11T09:11:27;18.30;85.40
47520;DHT22;33252;48.122;11.538;2022-07-11T09:13:53;18.10;85.60
47520;DHT22;33252;48.122;11.538;2022-07-11T09:16:18;18.20;86.30
47520;DHT22;33252;48.122;11.538;2022-07-11T09:18:52;18.30;85.80
47520;DHT22;33252;48.122;11.538;2022-07-11T09:21:17;18.50;85.30
47520;DHT22;33252;48.122;11.538;2022-07-11T09:24:02;18.60;86.90
47520;DHT22;33252;48.122;11.538;2022-07-11T09:27:10;18.50;84.30
47520;DHT22;33252;48.122;11.538;2022-07-11T09:29:36;18.70;85.00
47520;DHT22;33252;48.122;11.538;2022-07-11T09:32:01;18.60;84.40
47520;DHT22;33252;48.122;11.538;2022-07-11T09:34:28;18.50;86.50
47520;DHT22;33252;48.122;11.538;2022-07-11T09:36:54;18.70;84.90
47520;DHT22;33252;48.122;11.538;2022-07-11T09:39:21;18.60;84.50
47520;DHT22;33252;48.122;11.538;2022-07-11T09:41:47;18.50;85.70
47520;DHT22;33252;48.122;11.538;2022-07-11T09:46:40;18.60;85.50
47520;DHT22;33252;48.122;11.538;2022-07-11T09:49:06;18.30;85.40
47520;DHT22;33252;48.122;11.538;2022-07-11T09:51:33;18.30;84.60
47520;DHT22;33252;48.122;11.538;2022-07-11T09:53:59;18.50;85.20
47520;DHT22;33252;48.122;11.538;2022-07-11T09:56:25;18.40;84.90
47520;DHT22;33252;48.122;11.538;2022-07-11T09:59:00;18.50;84.90
47520;DHT22;33252;48.122;11.538;2022-07-11T10:01:26;18.60;85.00
47520;DHT22;33252;48.122;11.538;2022-07-11T10:03:53;18.60;83.70
47520;DHT22;33252;48.122;11.538;2022-07-11T10:06:18;18.90;84.50
47520;DHT22;33252;48.122;11.538;2022-07-11T10:08:44;18.60;83.10
47520;DHT22;33252;48.122;11.538;2022-07-11T10:11:10;18.80;82.70
47520;DHT22;33252;48.122;11.538;2022-07-11T10:13:36;18.70;83.70
47520;DHT22;33252;48.122;11.538;2022-07-11T10:16:04;18.70;84.00
47520;DHT22;33252;48.122;11.538;2022-07-11T10:18:38;19.00;83.20
47520;DHT22;33252;48.122;11.538;2022-07-11T10:21:07;19.20;82.70
47520;DHT22;33252;48.122;11.538;2022-07-11T10:26:07;18.80;82.40
47520;DHT22;33252;48.122;11.538;2022-07-11T10:28:38;18.90;84.00
47520;DHT22;33252;48.122;11.538;2022-07-11T10:31:05;18.90;84.20
47520;DHT22;33252;48.122;11.538;2022-07-11T10:33:49;18.50;83.40
47520;DHT22;33252;48.122;11.538;2022-07-11T10:36:27;18.60;83.80
47520;DHT22;33252;48.122;11.538;2022-07-11T10:41:37;18.90;83.10
47520;DHT22;33252;48.122;11.538;2022-07-11T10:44:03;19.00;82.80
47520;DHT22;33252;48.122;11.538;2022-07-11T10:46:29;18.90;82.30
47520;DHT22;33252;48.122;11.538;2022-07-11T10:48:59;18.70;83.90
47520;DHT22;33252;48.122;11.538;2022-07-11T10:53:56;18.70;84.90
47520;DHT22;33252;48.122;11.538;2022-07-11T11:01:31;18.90;84.00
47520;DHT22;33252;48.122;11.538;2022-07-11T11:04:40;19.00;83.30
47520;DHT22;33252;48.122;11.538;2022-07-11T11:06:55;19.10;83.70
47520;DHT22;33252;48.122;11.538;2022-07-11T11:09:37;19.50;83.00
47520;DHT22;33252;48.122;11.538;2022-07-11T11:12:03;19.70;81.80
47520;DHT22;33252;48.122;11.538;2022-07-11T11:14:28;19.60;82.70
47520;DHT22;33252;48.122;11.538;2022-07-11T11:16:54;19.60;82.20
47520;DHT22;33252;48.122;11.538;2022-07-11T11:22:14;19.70;81.20
47520;DHT22;33252;48.122;11.538;2022-07-11T11:24:43;19.80;83.70
47520;DHT22;33252;48.122;11.538;2022-07-11T11:27:16;19.80;79.90
47520;DHT22;33252;48.122;11.538;2022-07-11T11:29:43;19.70;80.80
47520;DHT22;33252;48.122;11.538;2022-07-11T11:32:09;20.10;83.10
47520;DHT22;33252;48.122;11.538;2022-07-11T11:34:35;20.20;80.00
47520;DHT22;33252;48.122;11.538;2022-07-11T11:37:01;20.00;80.00
47520;DHT22;33252;48.122;11.538;2022-07-11T11:41:52;19.90;81.70
47520;DHT22;33252;48.122;11.538;2022-07-11T11:44:18;20.00;80.60
47520;DHT22;33252;48.122;11.538;2022-07-11T11:46:44;19.90;82.20
47520;DHT22;33252;48.122;11.538;2022-07-11T11:49:09;19.80;81.90
47520;DHT22;33252;48.122;11.538;2022-07-11T11:51:35;19.80;83.60
47520;DHT22;33252;48.122;11.538;2022-07-11T11:54:01;19.80;81.40
47520;DHT22;33252;48.122;11.538;2022-07-11T11:56:28;19.90;81.30
47520;DHT22;33252;48.122;11.538;2022-07-11T11:59:01;19.90;83.10
47520;DHT22;33252;48.122;11.538;2022-07-11T12:01:28;19.90;82.20
47520;DHT22;33252;48.122;11.538;2022-07-11T12:06:21;20.00;82.30
47520;DHT22;33252;48.122;11.538;2022-07-11T12:08:46;20.00;83.00
47520;DHT22;33252;48.122;11.538;2022-07-11T12:11:12;20.00;83.80
47520;DHT22;33252;48.122;11.538;2022-07-11T12:13:39;19.80;83.10
47520;DHT22;33252;48.122;11.538;2022-07-11T12:16:14;20.20;83.10
47520;DHT22;33252;48.122;11.538;2022-07-11T12:18:59;20.60;82.50
47520;DHT22;33252;48.122;11.538;2022-07-11T12:21:25;20.70;81.40
47520;DHT22;33252;48.122;11.538;2022-07-11T12:23:50;21.00;83.10
47520;DHT22;33252;48.122;11.538;2022-07-11T12:26:16;20.70;81.10
47520;DHT22;33252;48.122;11.538;2022-07-11T12:31:25;20.40;81.60
47520;DHT22;33252;48.122;11.538;2022-07-11T12:33:51;20.30;82.30
47520;DHT22;33252;48.122;11.538;2022-07-11T12:36:17;20.60;83.80
47520;DHT22;33252;48.122;11.538;2022-07-11T12:38:49;20.90;82.40
47520;DHT22;33252;48.122;11.538;2022-07-11T12:41:16;20.60;81.30
47520;DHT22;33252;48.122;11.538;2022-07-11T12:43:43;20.40;81.30
47520;DHT22;33252;48.122;11.538;2022-07-11T12:46:28;20.40;81.50
47520;DHT22;33252;48.122;11.538;2022-07-11T12:48:53;20.30;80.90
47520;DHT22;33252;48.122;11.538;2022-07-11T12:51:31;21.10;80.10
47520;DHT22;33252;48.122;11.538;2022-07-11T12:54:02;21.30;80.90
47520;DHT22;33252;48.122;11.538;2022-07-11T12:56:28;21.50;79.60
47520;DHT22;33252;48.122;11.538;2022-07-11T12:58:53;21.70;79.60
47520;DHT22;33252;48.122;11.538;2022-07-11T13:01:19;21.60;79.10
47520;DHT22;33252;48.122;11.538;2022-07-11T13:03:44;21.60;80.00
47520;DHT22;33252;48.122;11.538;2022-07-11T13:06:10;21.60;79.70
47520;DHT22;33252;48.122;11.538;2022-07-11T13:08:36;21.20;79.50
47520;DHT22;33252;48.122;11.538;2022-07-11T13:11:14;20.90;80.60
47520;DHT22;33252;48.122;11.538;2022-07-11T13:13:40;21.20;79.90
47520;DHT22;33252;48.122;11.538;2022-07-11T13:16:06;21.30;80.00
47520;DHT22;33252;48.122;11.538;2022-07-11T13:18:33;21.50;78.20
47520;DHT22;33252;48.122;11.538;2022-07-11T13:20:58;22.00;80.00
47520;DHT22;33252;48.122;11.538;2022-07-11T13:23:24;21.90;78.80
47520;DHT22;33252;48.122;11.538;2022-07-11T13:25:49;21.50;77.00
47520;DHT22;33252;48.122;11.538;2022-07-11T13:28:15;22.10;77.20
47520;DHT22;33252;48.122;11.538;2022-07-11T13:30:41;22.40;76.80
47520;DHT22;33252;48.122;11.538;2022-07-11T13:33:07;23.10;76.60
47520;DHT22;33252;48.122;11.538;2022-07-11T13:35:32;23.30;75.70
47520;DHT22;33252;48.122;11.538;2022-07-11T13:37:58;23.90;73.90
47520;DHT22;33252;48.122;11.538;2022-07-11T13:40:24;24.70;72.60
47520;DHT22;33252;48.122;11.538;2022-07-11T13:42:51;24.70;72.50
47520;DHT22;33252;48.122;11.538;2022-07-11T13:45:18;25.70;71.90
47520;DHT22;33252;48.122;11.538;2022-07-11T13:47:44;26.10;70.60
47520;DHT22;33252;48.122;11.538;2022-07-11T13:50:10;26.70;70.50
47520;DHT22;33252;48.122;11.538;2022-07-11T13:52:35;24.90;70.00
47520;DHT22;33252;48.122;11.538;2022-07-11T13:55:01;23.90;73.10
47520;DHT22;33252;48.122;11.538;2022-07-11T13:57:27;23.70;73.80
47520;DHT22;33252;48.122;11.538;2022-07-11T13:59:53;23.40;75.00
47520;DHT22;33252;48.122;11.538;2022-07-11T14:02:18;23.20;74.90
47520;DHT22;33252;48.122;11.538;2022-07-11T14:04:44;22.90;75.60
47520;DHT22;33252;48.122;11.538;2022-07-11T14:07:10;23.60;75.10
47520;DHT22;33252;48.122;11.538;2022-07-11T14:09:39;25.10;72.70
47520;DHT22;33252;48.122;11.538;2022-07-11T14:12:05;25.80;70.70
47520;DHT22;33252;48.122;11.538;2022-07-11T14:14:31;24.90;72.20
47520;DHT22;33252;48.122;11.538;2022-07-11T14:16:58;24.20;72.60
47520;DHT22;33252;48.122;11.538;2022-07-11T14:19:24;25.20;71.60
47520;DHT22;33252;48.122;11.538;2022-07-11T14:21:49;24.90;75.20
47520;DHT22;33252;48.122;11.538;2022-07-11T14:24:15;24.30;73.00
47520;DHT22;33252;48.122;11.538;2022-07-11T14:34:35;23.70;76.60
47520;DHT22;33252;48.122;11.538;2022-07-11T14:37:00;23.80;75.70
47520;DHT22;33252;48.122;11.538;2022-07-11T14:39:26;23.60;76.40
47520;DHT22;33252;48.122;11.538;2022-07-11T14:41:51;23.30;76.70
47520;DHT22;33252;48.122;11.538;2022-07-11T14:44:17;25.00;73.00
47520;DHT22;33252;48.122;11.538;2022-07-11T14:46:42;24.90;72.00
47520;DHT22;33252;48.122;11.538;2022-07-11T14:49:08;24.30;72.30
47520;DHT22;33252;48.122;11.538;2022-07-11T14:51:35;23.30;74.80
47520;DHT22;33252;48.122;11.538;2022-07-11T14:54:00;23.80;75.80
47520;DHT22;33252;48.122;11.538;2022-07-11T14:56:26;23.60;77.60
47520;DHT22;33252;48.122;11.538;2022-07-11T14:58:52;23.40;77.30
47520;DHT22;33252;48.122;11.538;2022-07-11T15:01:17;23.10;78.30
47520;DHT22;33252;48.122;11.538;2022-07-11T15:03:43;23.10;77.80
47520;DHT22;33252;48.122;11.538;2022-07-11T15:06:12;23.00;78.00
47520;DHT22;33252;48.122;11.538;2022-07-11T15:08:38;22.90;77.90
47520;DHT22;33252;48.122;11.538;2022-07-11T15:11:23;22.80;77.50
47520;DHT22;33252;48.122;11.538;2022-07-11T15:14:08;22.60;80.10
47520;DHT22;33252;48.122;11.538;2022-07-11T15:16:34;22.60;78.20
47520;DHT22;33252;48.122;11.538;2022-07-11T15:19:00;22.20;78.80
47520;DHT22;33252;48.122;11.538;2022-07-11T15:21:26;22.50;79.20
47520;DHT22;33252;48.122;11.538;2022-07-11T15:23:52;22.50;78.20
47520;DHT22;33252;48.122;11.538;2022-07-11T15:26:18;22.50;78.20
47520;DHT22;33252;48.122;11.538;2022-07-11T15:28:43;23.50;76.60
47520;DHT22;33252;48.122;11.538;2022-07-11T15:31:09;23.60;76.00
47520;DHT22;33252;48.122;11.538;2022-07-11T15:33:35;23.30;76.20
47520;DHT22;33252;48.122;11.538;2022-07-11T15:36:01;22.80;78.00
47520;DHT22;33252;48.122;11.538;2022-07-11T15:38:26;22.70;78.50
47520;DHT22;33252;48.122;11.538;2022-07-11T15:40:52;22.30;77.70
47520;DHT22;33252;48.122;11.538;2022-07-11T15:43:18;22.10;79.00
47520;DHT22;33252;48.122;11.538;2022-07-11T15:45:43;21.90;79.50
47520;DHT22;33252;48.122;11.538;2022-07-11T15:48:09;21.80;79.50